Terminal Aerodrome Forecast
Issued by NWS Amarillo, TX

Home | Current Version | Previous Version | Text Only | Print | Product List | Glossary On
Versions: 1 2 3 4 5 6 7 8 9 10 11 12 13 14 15 16 17 18 19 20 21 22 23
000
FTUS44 KAMA 021700 RRA
TAFAMA
TAF
KAMA 021751Z 0218/0318 20012KT P6SM FEW050 BKN200
     FM030100 15012KT P6SM VCTS SCT040CB BKN120 OVC300 PROB30
      0303/0308 VRB20G30KT TSRA BKN040CB
     FM031500 18011KT P6SM SCT015 BKN150=

USA.gov is the U.S. government's official web portal to all federal, state and local government web resources and services.